Navigator Of The Seas — C6FU4 — position and weather

sailwx.info

Track history (hours):
 
Tides and Currents Weather Stations Pressure Air Temp Water Temp Dewpoint Dewpoint Depression Visibility Wind Speed Wind Dir Waves Ship Positions

Navigator Of The Seas

Operator: Royal Caribbean Cruises Ltd

Last reported at 2017-Mar-26 23:33 UTC. Time now 2017-Mar-27 06:51 UTC.
Position N 25°57' W 079°45'.

Type: Passenger vessel. MMSI: 311478000.

Date/timePositionNaut miles runAvg speedWind from/ knotsBaromVisibWave heightAir tempDewpointWater temp
2017-Mar-26 23:33N 25°57' W 079°45'1514.9
2017-Mar-26 22:33N 25°49' W 079°59'10 9.7
2017-Mar-26 21:34N 25°46' W 080°09'1 1.3
2017-Mar-26 20:33N 25°47' W 080°11'0 0.0
2017-Mar-26 19:33N 25°47' W 080°11'0 0.0
2017-Mar-26 18:33N 25°47' W 080°11'0 0.0
2017-Mar-26 17:33N 25°47' W 080°11'0 0.0
2017-Mar-26 16:30N 25°47' W 080°11'0 0.0
2017-Mar-26 15:33N 25°47' W 080°11'0 0.0
2017-Mar-26 14:33N 25°47' W 080°11'0 0.0
2017-Mar-26 13:33N 25°47' W 080°11'0 0.0
2017-Mar-26 12:33N 25°47' W 080°11'0 0.0
2017-Mar-26 11:33N 25°47' W 080°11'0 0.0
2017-Mar-26 10:30N 25°47' W 080°11'0 0.4
2017-Mar-26 09:33N 25°47' W 080°11'8 8.5
2017-Mar-26 08:34N 25°46' W 080°02'1413.6
2017-Mar-26 07:33N 25°34' W 079°55'76217.1
2017-Mar-24 11:00N 15°24' W 071°48'234 4.5 050 / 201015.010.8 26.024.627.0
2017-Mar-22 07:00N 12°12' W 069°30'397 9.0 090 / 171015.010.8 26.024.626.0
2017-Mar-20 11:00N 18°42' W 068°12'   070 / 101018.0 26.024.625.0
2017-Mar-17 23:33N 25°23' W 079°51'1615.6
2017-Mar-17 22:33N 25°37' W 079°59'1211.8
2017-Mar-17 21:34N 25°46' W 080°08'3 2.8
2017-Mar-17 20:33N 25°47' W 080°11'0 0.0
2017-Mar-17 19:30N 25°47' W 080°11'0 0.0
2017-Mar-17 18:33N 25°47' W 080°11'0 0.0
2017-Mar-17 17:33N 25°47' W 080°11'0 0.0
2017-Mar-17 16:30N 25°47' W 080°11'0 0.0
2017-Mar-17 15:27N 25°47' W 080°11'0 0.0
2017-Mar-17 14:33N 25°47' W 080°11'0 0.0
2017-Mar-17 13:33N 25°47' W 080°11'0 0.0
2017-Mar-17 12:33N 25°47' W 080°11'0 0.0
2017-Mar-17 11:24N 25°47' W 080°11'0 0.0
2017-Mar-17 10:33N 25°47' W 080°11'0 0.0
2017-Mar-17 09:33N 25°47' W 080°11'2 2.0
2017-Mar-17 08:33N 25°46' W 080°09'8 8.4
2017-Mar-17 07:33N 25°43' W 080°00'1515.2
2017-Mar-17 06:33N 25°28' W 080°00'  
Track history (hours):
 
Tides and Currents Weather Stations Pressure Air Temp Water Temp Dewpoint Dewpoint Depression Visibility Wind Speed Wind Dir Waves Ship Positions

Navigator Of The Seas

Operator: Royal Caribbean Cruises Ltd

Last reported at 2017-Mar-26 23:33 UTC. Time now 2017-Mar-27 06:51 UTC.
Position N 25°57' W 079°45'.

Type: Passenger vessel. MMSI: 311478000.

Date/timePositionNaut miles runAvg speedWind from/ knotsBaromVisibWave heightAir tempDewpointWater temp
2017-Mar-26 23:33N 25°57' W 079°45'1514.9
2017-Mar-26 22:33N 25°49' W 079°59'10 9.7
2017-Mar-26 21:34N 25°46' W 080°09'1 1.3
2017-Mar-26 20:33N 25°47' W 080°11'0 0.0
2017-Mar-26 19:33N 25°47' W 080°11'0 0.0
2017-Mar-26 18:33N 25°47' W 080°11'0 0.0
2017-Mar-26 17:33N 25°47' W 080°11'0 0.0
2017-Mar-26 16:30N 25°47' W 080°11'0 0.0
2017-Mar-26 15:33N 25°47' W 080°11'0 0.0
2017-Mar-26 14:33N 25°47' W 080°11'0 0.0
2017-Mar-26 13:33N 25°47' W 080°11'0 0.0
2017-Mar-26 12:33N 25°47' W 080°11'0 0.0
2017-Mar-26 11:33N 25°47' W 080°11'0 0.0
2017-Mar-26 10:30N 25°47' W 080°11'0 0.4
2017-Mar-26 09:33N 25°47' W 080°11'8 8.5
2017-Mar-26 08:34N 25°46' W 080°02'1413.6
2017-Mar-26 07:33N 25°34' W 079°55'76217.1
2017-Mar-24 11:00N 15°24' W 071°48'234 4.5 050 / 201015.010.8 26.024.627.0
2017-Mar-22 07:00N 12°12' W 069°30'397 9.0 090 / 171015.010.8 26.024.626.0
2017-Mar-20 11:00N 18°42' W 068°12'   070 / 101018.0 26.024.625.0
2017-Mar-17 23:33N 25°23' W 079°51'1615.6
2017-Mar-17 22:33N 25°37' W 079°59'1211.8
2017-Mar-17 21:34N 25°46' W 080°08'3 2.8
2017-Mar-17 20:33N 25°47' W 080°11'0 0.0
2017-Mar-17 19:30N 25°47' W 080°11'0 0.0
2017-Mar-17 18:33N 25°47' W 080°11'0 0.0
2017-Mar-17 17:33N 25°47' W 080°11'0 0.0
2017-Mar-17 16:30N 25°47' W 080°11'0 0.0
2017-Mar-17 15:27N 25°47' W 080°11'0 0.0
2017-Mar-17 14:33N 25°47' W 080°11'0 0.0
2017-Mar-17 13:33N 25°47' W 080°11'0 0.0
2017-Mar-17 12:33N 25°47' W 080°11'0 0.0
2017-Mar-17 11:24N 25°47' W 080°11'0 0.0
2017-Mar-17 10:33N 25°47' W 080°11'0 0.0
2017-Mar-17 09:33N 25°47' W 080°11'2 2.0
2017-Mar-17 08:33N 25°46' W 080°09'8 8.4
2017-Mar-17 07:33N 25°43' W 080°00'1515.2
2017-Mar-17 06:33N 25°28' W 080°00'  

Dump ship's entire track history